Time;durP1;ratioP1;P1;durP2;ratioP2;P2;SDS_P1;SDS_P2;PMS_P1;PMS_P2;Temp;Humidity;BMP_temperature;BMP_pressure;BME280_temperature;BME280_humidity;BME280_pressure;Samples;Min_cycle;Max_cycle;Signal;HPM_P1;HPM_P2
2023/10/12 00:00:41;;;;;;;40.08;17.05;;;;;;;;;;5019606;28;20041;-61
2023/10/12 00:03:07;;;;;;;48.63;17.60;;;;;;;;;;5008570;28;20086;-62
2023/10/12 00:05:34;;;;;;;38.08;17.25;;;;;;;;;;5011863;28;20426;-60
2023/10/12 00:08:06;;;;;;;43.05;18.60;;;;;;;;;;5011032;28;20038;-61
2023/10/12 00:10:40;;;;;;;42.00;19.05;;;;;;;;;;5011048;28;20058;-61
2023/10/12 00:13:06;;;;;;;42.55;19.63;;;;;;;;;;5011068;28;20025;-60
2023/10/12 00:15:39;;;;;;;27.30;12.52;;;;;;;;;;5025009;28;20029;-64
2023/10/12 00:18:08;;;;;;;33.05;11.10;;;;;;;;;;5030000;28;20519;-64
2023/10/12 00:20:40;;;;;;;19.55;7.97;;;;;;;;;;5028490;28;20040;-66
2023/10/12 00:23:14;;;;;;;16.02;6.35;;;;;;;;;;5028995;28;20034;-62
2023/10/12 00:25:45;;;;;;;14.77;4.82;;;;;;;;;;5028904;28;20398;-64
2023/10/12 00:28:13;;;;;;;13.23;3.40;;;;;;;;;;5012632;28;20476;-65
2023/10/12 00:30:38;;;;;;;13.48;3.25;;;;;;;;;;5012083;28;20116;-64
2023/10/12 00:33:03;;;;;;;12.00;2.67;;;;;;;;;;5012737;28;20486;-62
2023/10/12 00:35:29;;;;;;;11.68;2.95;;;;;;;;;;5010758;28;20030;-66
2023/10/12 00:37:54;;;;;;;9.50;2.97;;;;;;;;;;5011464;28;20420;-64
2023/10/12 00:40:30;;;;;;;9.30;2.47;;;;;;;;;;5009247;28;20026;-69
2023/10/12 00:42:59;;;;;;;9.25;2.50;;;;;;;;;;5009470;28;20029;-69
2023/10/12 00:45:34;;;;;;;8.98;2.83;;;;;;;;;;5020320;28;20178;-68
2023/10/12 00:48:08;;;;;;;9.23;2.95;;;;;;;;;;5011208;28;20738;-70
2023/10/12 00:50:36;;;;;;;7.97;2.53;;;;;;;;;;5009700;28;20030;-68
2023/10/12 00:55:45;;;;;;;7.97;2.65;;;;;;;;;;5029898;28;20020;-70
2023/10/12 00:58:14;;;;;;;12.55;2.95;;;;;;;;;;5022839;28;20026;-69
2023/10/12 01:03:45;;;;;;;9.70;3.25;;;;;;;;;;5009783;28;20024;-70
2023/10/12 01:08:42;;;;;;;8.82;3.20;;;;;;;;;;5009852;28;20018;-71
2023/10/12 01:11:08;;;;;;;9.55;3.33;;;;;;;;;;5018644;28;20017;-71
2023/10/12 01:13:33;;;;;;;11.77;3.42;;;;;;;;;;5029713;28;20407;-70
2023/10/12 01:16:20;;;;;;;12.18;3.80;;;;;;;;;;5016218;28;20490;-71
2023/10/12 01:18:45;;;;;;;10.57;2.00;;;;;;;;;;5009655;28;20045;-70
2023/10/12 01:21:11;;;;;;;7.80;1.45;;;;;;;;;;5010232;28;20104;-71
2023/10/12 01:23:36;;;;;;;11.05;1.58;;;;;;;;;;5011068;28;20559;-71
2023/10/12 01:26:10;;;;;;;10.35;1.63;;;;;;;;;;5020534;28;20064;-71
2023/10/12 01:28:35;;;;;;;8.55;1.75;;;;;;;;;;5027782;28;20544;-71
2023/10/12 01:31:02;;;;;;;11.82;2.10;;;;;;;;;;5024662;28;20034;-70
2023/10/12 01:33:27;;;;;;;13.57;2.08;;;;;;;;;;5011870;28;20010;-71
2023/10/12 01:35:53;;;;;;;14.02;2.40;;;;;;;;;;5005637;28;20033;-71
2023/10/12 01:38:21;;;;;;;18.00;2.42;;;;;;;;;;5010476;28;20048;-71
2023/10/12 01:43:17;;;;;;;20.65;2.42;;;;;;;;;;5010083;28;20083;-70
2023/10/12 01:45:43;;;;;;;14.90;2.40;;;;;;;;;;5027918;28;20021;-71
2023/10/12 01:48:12;;;;;;;12.02;2.50;;;;;;;;;;5028997;28;20057;-70
2023/10/12 01:50:38;;;;;;;19.80;2.40;;;;;;;;;;5029050;28;20116;-70
2023/10/12 01:55:45;;;;;;;18.88;2.50;;;;;;;;;;5030937;28;20036;-69
2023/10/12 01:58:12;;;;;;;16.70;2.30;;;;;;;;;;5032694;28;20022;-70
2023/10/12 02:00:51;;;;;;;19.73;2.53;;;;;;;;;;5018807;28;20078;-70
2023/10/12 02:05:59;;;;;;;16.05;2.40;;;;;;;;;;5013914;28;20029;-69
2023/10/12 02:08:49;;;;;;;24.23;3.10;;;;;;;;;;5014828;28;20018;-70
2023/10/12 02:13:47;;;;;;;13.43;2.33;;;;;;;;;;5017073;28;20441;-71
2023/10/12 02:16:13;;;;;;;16.55;2.42;;;;;;;;;;5004548;28;20178;-71
2023/10/12 02:18:38;;;;;;;17.80;2.43;;;;;;;;;;5013918;28;20482;-70
2023/10/12 02:23:36;;;;;;;14.97;2.90;;;;;;;;;;5031767;28;20395;-70
2023/10/12 02:26:07;;;;;;;16.83;3.30;;;;;;;;;;5017086;28;20471;-71
2023/10/12 02:28:37;;;;;;;22.00;2.70;;;;;;;;;;5031618;28;20063;-71
2023/10/12 02:31:03;;;;;;;19.07;2.83;;;;;;;;;;5016388;28;20368;-71
2023/10/12 02:33:35;;;;;;;16.67;2.90;;;;;;;;;;5032150;28;20025;-71
2023/10/12 02:36:06;;;;;;;18.60;2.40;;;;;;;;;;5022216;28;20018;-71
2023/10/12 02:38:31;;;;;;;16.75;2.70;;;;;;;;;;5024241;28;20026;-71
2023/10/12 02:40:58;;;;;;;24.93;3.10;;;;;;;;;;5016156;28;20030;-72
2023/10/12 02:43:27;;;;;;;12.63;2.30;;;;;;;;;;5012470;28;20105;-72
2023/10/12 02:45:53;;;;;;;19.53;3.03;;;;;;;;;;5029977;28;20403;-71
2023/10/12 02:48:23;;;;;;;17.33;2.63;;;;;;;;;;5030315;28;20026;-72
2023/10/12 02:50:57;;;;;;;15.27;2.60;;;;;;;;;;5031636;28;20026;-72
2023/10/12 02:53:30;;;;;;;18.83;2.57;;;;;;;;;;5031761;28;20108;-71
2023/10/12 02:55:58;;;;;;;17.63;2.83;;;;;;;;;;5030825;28;20026;-70
2023/10/12 02:58:24;;;;;;;16.47;2.37;;;;;;;;;;4997561;28;20014;-72
2023/10/12 03:00:55;;;;;;;24.77;2.90;;;;;;;;;;5014397;28;20460;-65
2023/10/12 03:03:27;;;;;;;16.73;2.90;;;;;;;;;;5021795;28;20029;-65
2023/10/12 03:05:58;;;;;;;19.87;2.87;;;;;;;;;;5013042;28;20037;-66
2023/10/12 03:08:23;;;;;;;23.37;2.90;;;;;;;;;;5008661;28;20057;-67
2023/10/12 03:13:26;;;;;;;15.37;2.60;;;;;;;;;;5028430;28;20411;-65
2023/10/12 03:15:59;;;;;;;21.27;2.87;;;;;;;;;;5013613;28;20487;-67
2023/10/12 03:18:26;;;;;;;23.57;3.57;;;;;;;;;;5031024;28;20383;-66
2023/10/12 03:21:02;;;;;;;18.20;3.03;;;;;;;;;;5016645;28;20030;-66
2023/10/12 03:23:29;;;;;;;23.47;4.10;;;;;;;;;;5011375;28;20037;-67
2023/10/12 03:25:54;;;;;;;20.30;4.27;;;;;;;;;;5016108;28;20251;-66
2023/10/12 03:28:36;;;;;;;24.67;4.03;;;;;;;;;;5031184;28;20026;-66
2023/10/12 03:33:54;;;;;;;26.13;3.77;;;;;;;;;;5022793;28;20068;-66
2023/10/12 03:36:25;;;;;;;23.00;3.90;;;;;;;;;;5012759;28;20421;-65
2023/10/12 03:44:19;;;;;;;24.40;3.37;;;;;;;;;;5005350;28;20113;-65
2023/10/12 03:46:56;;;;;;;18.80;3.50;;;;;;;;;;5011112;28;20034;-65
2023/10/12 03:51:59;;;;;;;28.38;4.10;;;;;;;;;;5011421;28;20120;-65
2023/10/12 03:54:32;;;;;;;21.70;3.70;;;;;;;;;;5011918;28;20026;-64
2023/10/12 04:05:21;;;;;;;24.83;4.23;;;;;;;;;;5009800;28;20117;-64
2023/10/12 04:13:09;;;;;;;21.13;4.40;;;;;;;;;;5011903;28;20360;-69
2023/10/12 04:18:28;;;;;;;23.60;4.17;;;;;;;;;;4914203;29;20055;-70
2023/10/12 04:20:56;;;;;;;20.73;4.63;;;;;;;;;;4914820;29;20036;-69
2023/10/12 04:23:43;;;;;;;22.77;4.30;;;;;;;;;;4914086;29;20379;-69
2023/10/12 04:28:40;;;;;;;23.10;3.80;;;;;;;;;;4914447;29;20042;-68
2023/10/12 04:33:46;;;;;;;24.83;4.10;;;;;;;;;;4913683;29;20479;-68
2023/10/12 04:36:27;;;;;;;16.53;4.20;;;;;;;;;;4936235;28;20127;-69
2023/10/12 04:39:27;;;;;;;20.43;5.10;;;;;;;;;;4988028;28;20128;-69
2023/10/12 04:46:59;;;;;;;15.47;3.70;;;;;;;;;;5050798;28;20020;-67
2023/10/12 04:52:15;;;;;;;13.23;3.87;;;;;;;;;;5050307;28;20484;-69
2023/10/12 04:57:26;;;;;;;7.00;1.63;;;;;;;;;;5010214;28;20025;-69
2023/10/12 05:00:00;;;;;;;7.40;1.80;;;;;;;;;;5010315;28;20050;-67
2023/10/12 05:02:33;;;;;;;13.73;2.10;;;;;;;;;;5013846;28;20014;-68
2023/10/12 05:05:14;;;;;;;7.37;1.90;;;;;;;;;;5011591;28;20018;-67
2023/10/12 05:07:56;;;;;;;11.77;1.98;;;;;;;;;;5053042;28;20018;-68
2023/10/12 05:10:26;;;;;;;13.70;2.38;;;;;;;;;;5037887;28;20372;-67
2023/10/12 05:12:52;;;;;;;9.70;1.60;;;;;;;;;;5022140;28;20076;-67
2023/10/12 05:15:20;;;;;;;4.60;1.87;;;;;;;;;;5058419;28;20462;-67
2023/10/12 05:17:45;;;;;;;0.20;0.20;;;;;;;;;;5112803;28;20064;-67
2023/10/12 05:20:11;;;;;;;0.37;0.37;;;;;;;;;;5112162;28;20098;-67
2023/10/12 05:22:36;;;;;;;0.67;0.57;;;;;;;;;;5113332;28;20027;-61
2023/10/12 05:25:01;;;;;;;0.10;0.10;;;;;;;;;;5111944;28;20465;-63
2023/10/12 05:27:29;;;;;;;0.95;0.82;;;;;;;;;;5047168;28;20488;-61
2023/10/12 05:29:59;;;;;;;0.37;0.37;;;;;;;;;;5013150;28;20037;-61
2023/10/12 05:32:36;;;;;;;0.00;0.00;;;;;;;;;;5013073;28;20053;-61
2023/10/12 05:35:04;;;;;;;1.80;0.57;;;;;;;;;;5013453;28;20097;-61
2023/10/12 05:37:38;;;;;;;0.23;0.23;;;;;;;;;;5013146;28;20064;-61
2023/10/12 05:40:09;;;;;;;0.30;0.30;;;;;;;;;;5013078;28;20105;-62
2023/10/12 05:42:39;;;;;;;0.32;0.30;;;;;;;;;;5013021;28;20034;-62
2023/10/12 05:45:31;;;;;;;0.60;0.57;;;;;;;;;;5013276;28;20064;-62
2023/10/12 05:47:53;;;;;;;0.17;0.17;;;;;;;;;;5012472;28;20483;-61
2023/10/12 05:50:23;;;;;;;0.47;0.40;;;;;;;;;;5013125;28;20368;-61
2023/10/12 05:52:51;;;;;;;0.10;0.10;;;;;;;;;;5001179;28;20017;-61
2023/10/12 05:55:21;;;;;;;0.33;0.33;;;;;;;;;;4993441;28;20407;-62
2023/10/12 05:57:49;;;;;;;0.60;0.30;;;;;;;;;;4993272;28;20093;-61
2023/10/12 06:02:59;;;;;;;0.30;0.30;;;;;;;;;;4993177;28;20029;-61
2023/10/12 06:05:24;;;;;;;0.30;0.30;;;;;;;;;;4994607;28;20030;-61
2023/10/12 06:07:49;;;;;;;0.30;0.30;;;;;;;;;;5012576;28;20030;-61
2023/10/12 06:10:14;;;;;;;0.63;0.63;;;;;;;;;;5012570;28;20071;-61
2023/10/12 06:12:40;;;;;;;0.10;0.10;;;;;;;;;;5012630;28;20025;-61
2023/10/12 06:15:09;;;;;;;0.10;0.10;;;;;;;;;;5012517;28;20472;-62
2023/10/12 06:17:39;;;;;;;0.00;0.00;;;;;;;;;;5012211;28;20042;-62
2023/10/12 06:20:11;;;;;;;0.27;0.17;;;;;;;;;;5012541;28;20022;-60
2023/10/12 06:22:37;;;;;;;1.50;0.47;;;;;;;;;;5012758;28;20378;-63
2023/10/12 06:25:11;;;;;;;1.17;0.53;;;;;;;;;;5012705;28;20475;-62
2023/10/12 06:27:37;;;;;;;0.60;0.60;;;;;;;;;;5012714;28;20022;-62
2023/10/12 06:30:16;;;;;;;1.50;0.97;;;;;;;;;;5012252;28;20026;-62
2023/10/12 06:32:41;;;;;;;0.37;0.37;;;;;;;;;;5012459;28;20021;-68
2023/10/12 06:40:37;;;;;;;0.10;0.10;;;;;;;;;;5012446;28;20060;-68
2023/10/12 06:45:51;;;;;;;1.00;0.43;;;;;;;;;;5012402;28;20101;-68
2023/10/12 06:48:43;;;;;;;0.30;0.20;;;;;;;;;;5012378;28;20487;-68
2023/10/12 06:51:13;;;;;;;3.97;0.40;;;;;;;;;;5011882;28;20121;-67
2023/10/12 06:53:40;;;;;;;1.23;0.93;;;;;;;;;;5012191;28;20030;-67
2023/10/12 06:56:24;;;;;;;0.10;0.10;;;;;;;;;;5012305;28;20029;-68
2023/10/12 07:01:57;;;;;;;3.58;1.35;;;;;;;;;;5072502;28;20115;-68
2023/10/12 07:04:38;;;;;;;0.77;0.40;;;;;;;;;;5072422;28;20100;-68
2023/10/12 07:07:07;;;;;;;0.10;0.10;;;;;;;;;;5072286;28;20040;-67
2023/10/12 07:09:39;;;;;;;0.17;0.10;;;;;;;;;;5072209;28;20025;-68
2023/10/12 07:12:07;;;;;;;1.27;0.33;;;;;;;;;;5072295;28;20121;-68
2023/10/12 07:14:37;;;;;;;0.38;0.38;;;;;;;;;;5072280;28;20091;-68
2023/10/12 07:17:04;;;;;;;4.17;1.87;;;;;;;;;;5071958;28;20048;-67
2023/10/12 07:19:29;;;;;;;0.40;0.40;;;;;;;;;;5072174;28;20498;-68
2023/10/12 07:21:55;;;;;;;0.37;0.37;;;;;;;;;;5072025;28;20122;-68
2023/10/12 07:24:23;;;;;;;0.30;0.30;;;;;;;;;;5071597;28;20024;-68
2023/10/12 07:26:49;;;;;;;0.22;0.22;;;;;;;;;;5071967;28;20109;-66
2023/10/12 07:29:19;;;;;;;0.32;0.32;;;;;;;;;;5071948;28;20047;-68
2023/10/12 07:31:48;;;;;;;0.75;0.35;;;;;;;;;;5063165;28;20387;-68
2023/10/12 07:34:18;;;;;;;3.60;1.00;;;;;;;;;;5011617;28;20025;-68
2023/10/12 07:36:53;;;;;;;0.10;0.10;;;;;;;;;;5011668;28;20471;-67
2023/10/12 07:40:13;;;;;;;1.15;0.75;;;;;;;;;;5011661;28;20195;-68
2023/10/12 07:42:12;;;;;;;0.55;0.45;;;;;;;;;;5019087;28;20433;-67
2023/10/12 07:44:42;;;;;;;0.20;0.20;;;;;;;;;;5008955;28;20101;-67
2023/10/12 07:47:14;;;;;;;0.43;0.30;;;;;;;;;;4993803;28;20521;-67
2023/10/12 07:49:47;;;;;;;0.93;0.70;;;;;;;;;;4990978;28;20022;-67
2023/10/12 07:54:47;;;;;;;0.40;0.40;;;;;;;;;;4991845;28;20076;-67
2023/10/12 07:57:13;;;;;;;0.10;0.10;;;;;;;;;;4991852;28;20440;-67
2023/10/12 07:59:38;;;;;;;2.03;0.80;;;;;;;;;;4991428;28;20023;-67
2023/10/12 08:02:08;;;;;;;0.13;0.13;;;;;;;;;;4991349;28;20736;-68
2023/10/12 08:04:34;;;;;;;1.48;0.80;;;;;;;;;;4991630;28;20026;-67
2023/10/12 08:07:00;;;;;;;2.20;0.87;;;;;;;;;;5006713;28;20498;-67
2023/10/12 08:11:51;;;;;;;1.00;0.63;;;;;;;;;;5011122;28;20452;-66
2023/10/12 08:14:19;;;;;;;0.32;0.20;;;;;;;;;;5011001;28;20471;-66
2023/10/12 08:17:00;;;;;;;0.17;0.15;;;;;;;;;;5010402;28;20046;-66
2023/10/12 08:19:28;;;;;;;0.10;0.10;;;;;;;;;;5011210;28;20022;-66
2023/10/12 08:21:58;;;;;;;0.10;0.10;;;;;;;;;;5010524;28;20071;-65
2023/10/12 08:24:23;;;;;;;0.00;0.00;;;;;;;;;;5010905;28;20552;-65
2023/10/12 08:26:57;;;;;;;0.00;0.00;;;;;;;;;;5010440;28;20021;-64
2023/10/12 08:39:38;;;;;;;10.88;2.67;;;;;;;;;;5010769;28;20028;-66
2023/10/12 08:44:48;;;;;;;10.10;2.40;;;;;;;;;;5010396;28;20032;-66
2023/10/12 08:47:25;;;;;;;11.73;3.33;;;;;;;;;;5010705;28;20463;-64
2023/10/12 08:49:53;;;;;;;8.30;2.60;;;;;;;;;;5009888;28;20017;-67
2023/10/12 08:52:26;;;;;;;11.32;3.00;;;;;;;;;;5010244;28;20092;-67
2023/10/12 08:54:53;;;;;;;9.77;2.90;;;;;;;;;;5010575;28;20478;-67
2023/10/12 08:57:38;;;;;;;16.65;3.42;;;;;;;;;;5010197;28;20064;-67
2023/10/12 09:02:51;;;;;;;11.25;3.20;;;;;;;;;;5013829;28;20079;-66
2023/10/12 09:05:24;;;;;;;11.52;3.17;;;;;;;;;;5012078;28;20087;-67
2023/10/12 09:08:05;;;;;;;9.77;2.40;;;;;;;;;;4993958;28;20025;-67
2023/10/12 09:13:19;;;;;;;12.55;2.90;;;;;;;;;;4994298;28;20072;-67
2023/10/12 09:15:48;;;;;;;9.43;2.45;;;;;;;;;;4993803;28;20464;-68
2023/10/12 09:18:16;;;;;;;14.02;2.95;;;;;;;;;;4994360;28;20558;-67
2023/10/12 09:20:57;;;;;;;10.40;2.28;;;;;;;;;;5012589;28;20018;-66
2023/10/12 09:23:28;;;;;;;16.73;2.72;;;;;;;;;;5013731;28;20034;-67
2023/10/12 09:36:26;;;;;;;10.98;2.55;;;;;;;;;;5013232;28;20049;-67
2023/10/12 09:38:55;;;;;;;8.82;2.10;;;;;;;;;;5013104;28;20026;-67
2023/10/12 09:41:25;;;;;;;11.85;2.03;;;;;;;;;;5013363;28;20470;-68
2023/10/12 09:43:54;;;;;;;14.45;2.45;;;;;;;;;;5012964;28;20022;-67
2023/10/12 09:46:24;;;;;;;11.07;2.00;;;;;;;;;;5012986;28;20026;-68
2023/10/12 09:48:52;;;;;;;10.83;2.00;;;;;;;;;;5013339;28;20487;-67
2023/10/12 09:51:18;;;;;;;9.05;1.63;;;;;;;;;;5013244;28;20422;-67
2023/10/12 09:53:59;;;;;;;11.98;2.10;;;;;;;;;;5013007;28;20026;-68
2023/10/12 09:56:28;;;;;;;13.27;1.90;;;;;;;;;;4995920;28;20018;-67
2023/10/12 10:01:49;;;;;;;9.35;1.80;;;;;;;;;;4993257;28;20384;-68
2023/10/12 10:06:55;;;;;;;9.38;2.08;;;;;;;;;;5007918;28;20078;-62
2023/10/12 10:11:57;;;;;;;13.68;2.00;;;;;;;;;;5012273;28;20025;-61
2023/10/12 10:14:26;;;;;;;10.77;1.70;;;;;;;;;;5011370;28;20022;-61
2023/10/12 10:16:57;;;;;;;6.95;1.60;;;;;;;;;;5012365;28;20045;-61
2023/10/12 10:19:28;;;;;;;;;;;;;;;;;;5012839;28;20014;-61
2023/10/12 10:22:04;;;;;;;11.40;2.05;;;;;;;;;;5012684;28;19905;-62
2023/10/12 10:24:46;;;;;;;10.13;1.80;;;;;;;;;;5012756;28;20026;-61
2023/10/12 10:27:12;;;;;;;10.73;1.70;;;;;;;;;;5012444;28;20033;-62
2023/10/12 10:29:52;;;;;;;9.45;1.70;;;;;;;;;;5012562;28;20472;-61
2023/10/12 10:32:21;;;;;;;8.45;1.50;;;;;;;;;;5012657;28;20022;-61
2023/10/12 10:34:47;;;;;;;8.68;1.80;;;;;;;;;;5012197;28;20026;-61
2023/10/12 10:37:15;;;;;;;16.45;2.15;;;;;;;;;;5012394;28;20100;-62
2023/10/12 10:39:43;;;;;;;10.15;1.85;;;;;;;;;;5012219;28;20026;-62
2023/10/12 10:42:09;;;;;;;9.07;1.80;;;;;;;;;;5012244;28;20075;-61
2023/10/12 10:44:45;;;;;;;10.90;1.85;;;;;;;;;;5012049;28;20117;-62
2023/10/12 10:47:15;;;;;;;9.32;1.60;;;;;;;;;;5012116;28;20083;-62
2023/10/12 10:49:45;;;;;;;10.80;1.65;;;;;;;;;;5011933;28;20057;-62
2023/10/12 10:52:14;;;;;;;11.45;1.50;;;;;;;;;;5012084;28;20022;-62
2023/10/12 10:54:41;;;;;;;8.13;1.50;;;;;;;;;;5012236;28;20025;-62
2023/10/12 10:57:17;;;;;;;11.55;1.58;;;;;;;;;;5012250;28;20396;-61
2023/10/12 10:59:42;;;;;;;8.68;1.50;;;;;;;;;;5011936;28;20080;-62
2023/10/12 11:02:11;;;;;;;11.23;1.48;;;;;;;;;;5011795;28;20468;-61
2023/10/12 11:04:42;;;;;;;9.30;1.83;;;;;;;;;;5012133;28;20497;-62
2023/10/12 11:07:13;;;;;;;11.80;1.55;;;;;;;;;;5011779;28;20026;-61
2023/10/12 11:12:20;;;;;;;10.55;1.60;;;;;;;;;;5011961;28;19943;-62
2023/10/12 11:15:01;;;;;;;11.77;1.80;;;;;;;;;;5011547;28;20083;-62
2023/10/12 11:17:30;;;;;;;11.80;1.73;;;;;;;;;;5011427;28;20041;-61
2023/10/12 11:19:57;;;;;;;11.38;2.10;;;;;;;;;;5011854;28;20048;-63
2023/10/12 11:22:23;;;;;;;10.40;1.50;;;;;;;;;;5011630;28;20105;-62
2023/10/12 11:24:49;;;;;;;12.93;1.75;;;;;;;;;;5010575;28;20112;-62
2023/10/12 11:27:28;;;;;;;11.80;1.63;;;;;;;;;;5011053;28;20053;-63
2023/10/12 11:29:54;;;;;;;8.63;1.48;;;;;;;;;;4992112;28;20026;-62
2023/10/12 11:32:20;;;;;;;9.65;1.35;;;;;;;;;;4992007;28;20018;-62
2023/10/12 11:34:52;;;;;;;8.88;1.60;;;;;;;;;;4991560;28;20031;-63
2023/10/12 11:37:17;;;;;;;11.05;1.48;;;;;;;;;;4992081;28;20143;-62
2023/10/12 11:39:43;;;;;;;10.15;1.48;;;;;;;;;;4991985;28;20475;-62
2023/10/12 11:42:12;;;;;;;12.05;2.10;;;;;;;;;;4991959;28;20063;-63
2023/10/12 11:44:42;;;;;;;13.07;1.70;;;;;;;;;;4991932;28;20030;-63
2023/10/12 11:47:07;;;;;;;8.27;1.48;;;;;;;;;;4991623;28;20031;-62
2023/10/12 11:49:58;;;;;;;11.27;1.70;;;;;;;;;;4991728;28;20031;-62
2023/10/12 11:52:30;;;;;;;9.48;1.70;;;;;;;;;;4991686;28;20376;-63
2023/10/12 11:54:55;;;;;;;;;;;;;;;;;;4992209;28;20506;-63
2023/10/12 11:57:20;;;;;;;10.55;1.63;;;;;;;;;;4991296;28;19906;-63
2023/10/12 11:59:46;;;;;;;10.95;1.67;;;;;;;;;;4991674;28;20472;-63
2023/10/12 12:02:16;;;;;;;10.00;2.08;;;;;;;;;;4991606;28;20018;-62
2023/10/12 12:04:41;;;;;;;9.07;1.55;;;;;;;;;;4991327;28;20027;-63
2023/10/12 12:07:10;;;;;;;15.85;2.05;;;;;;;;;;5008011;28;20040;-63
2023/10/12 12:09:48;;;;;;;9.32;2.00;;;;;;;;;;5010854;28;20435;-63
2023/10/12 12:12:16;;;;;;;11.95;1.83;;;;;;;;;;5010797;28;20018;-63
2023/10/12 12:14:46;;;;;;;11.20;1.48;;;;;;;;;;5010684;28;20056;-63
2023/10/12 12:17:12;;;;;;;8.63;1.50;;;;;;;;;;5010745;28;20034;-63
2023/10/12 12:19:38;;;;;;;11.45;1.77;;;;;;;;;;5010711;28;20104;-63
2023/10/12 12:22:04;;;;;;;9.10;1.50;;;;;;;;;;5010971;28;20490;-63
2023/10/12 12:24:30;;;;;;;13.65;1.85;;;;;;;;;;5010468;28;20057;-62
2023/10/12 12:26:56;;;;;;;13.98;1.58;;;;;;;;;;5010869;28;20467;-63
2023/10/12 12:29:27;;;;;;;12.40;1.70;;;;;;;;;;5010720;28;20018;-63
2023/10/12 12:31:54;;;;;;;12.25;2.00;;;;;;;;;;5010589;28;20028;-62
2023/10/12 12:37:06;;;;;;;11.98;1.80;;;;;;;;;;5010452;28;20033;-63
2023/10/12 12:39:33;;;;;;;12.75;1.80;;;;;;;;;;5010699;28;20476;-62
2023/10/12 12:41:58;;;;;;;12.75;2.22;;;;;;;;;;5010461;28;20022;-62
2023/10/12 12:44:24;;;;;;;11.18;2.10;;;;;;;;;;5010423;28;20082;-62
2023/10/12 12:46:49;;;;;;;12.20;2.10;;;;;;;;;;5010061;28;20018;-63
2023/10/12 12:49:15;;;;;;;11.80;1.98;;;;;;;;;;5010282;28;20026;-63
2023/10/12 12:51:40;;;;;;;15.00;2.25;;;;;;;;;;5010211;28;20394;-63
2023/10/12 12:54:05;;;;;;;11.43;2.30;;;;;;;;;;5010159;28;20022;-62
2023/10/12 12:56:31;;;;;;;12.95;2.15;;;;;;;;;;5010515;28;20017;-62
2023/10/12 12:58:56;;;;;;;11.57;1.70;;;;;;;;;;5010077;28;20018;-62
2023/10/12 13:01:26;;;;;;;8.38;2.10;;;;;;;;;;5010203;28;20018;-62
2023/10/12 13:03:57;;;;;;;11.93;2.90;;;;;;;;;;5010092;28;20026;-62
2023/10/12 13:06:23;;;;;;;9.98;2.30;;;;;;;;;;5010050;28;20026;-62
2023/10/12 13:08:49;;;;;;;11.73;2.53;;;;;;;;;;5010147;28;20485;-62
2023/10/12 13:11:20;;;;;;;11.77;2.60;;;;;;;;;;5010013;28;20030;-62
2023/10/12 13:13:47;;;;;;;11.50;2.53;;;;;;;;;;5010044;28;20379;-63
2023/10/12 13:16:12;;;;;;;11.35;2.55;;;;;;;;;;5010112;28;20522;-63
2023/10/12 13:18:38;;;;;;;12.68;2.45;;;;;;;;;;5010138;28;20117;-62
2023/10/12 13:21:07;;;;;;;10.70;2.38;;;;;;;;;;5009865;28;20055;-62
2023/10/12 13:23:33;;;;;;;12.43;3.00;;;;;;;;;;5009522;28;20018;-63
2023/10/12 13:26:05;;;;;;;10.50;3.17;;;;;;;;;;5010142;28;20079;-63
2023/10/12 13:28:30;;;;;;;10.02;2.97;;;;;;;;;;5010177;28;20131;-63
2023/10/12 13:30:56;;;;;;;11.48;2.78;;;;;;;;;;5009708;28;20470;-64
2023/10/12 13:33:25;;;;;;;11.05;2.67;;;;;;;;;;5010073;28;20075;-64
2023/10/12 13:35:55;;;;;;;10.77;2.58;;;;;;;;;;5010012;28;20487;-64
2023/10/12 13:38:20;;;;;;;10.23;2.50;;;;;;;;;;5009718;28;20022;-64
2023/10/12 13:40:46;;;;;;;14.45;3.10;;;;;;;;;;5009571;28;20014;-65
2023/10/12 13:43:15;;;;;;;10.63;2.20;;;;;;;;;;5009909;28;20025;-64
2023/10/12 13:45:49;;;;;;;10.25;1.90;;;;;;;;;;5001707;28;20468;-64
2023/10/12 13:48:17;;;;;;;8.70;1.42;;;;;;;;;;4992465;28;20076;-63
2023/10/12 13:50:46;;;;;;;10.50;1.73;;;;;;;;;;4993608;28;20046;-62
2023/10/12 13:53:12;;;;;;;13.52;1.88;;;;;;;;;;4993445;28;20027;-61
2023/10/12 13:55:37;;;;;;;11.13;1.88;;;;;;;;;;4993236;28;20019;-62
2023/10/12 13:58:02;;;;;;;9.93;1.85;;;;;;;;;;4993236;28;20018;-61
2023/10/12 14:00:33;;;;;;;8.75;1.80;;;;;;;;;;4993578;28;20033;-62
2023/10/12 14:02:59;;;;;;;12.15;1.83;;;;;;;;;;4991997;28;20491;-61
2023/10/12 14:05:27;;;;;;;10.52;1.75;;;;;;;;;;4995702;28;20030;-62
2023/10/12 14:07:58;;;;;;;11.75;1.70;;;;;;;;;;5012945;28;20025;-61
2023/10/12 14:10:23;;;;;;;8.82;1.52;;;;;;;;;;5012767;28;20445;-62
2023/10/12 14:12:53;;;;;;;11.70;2.05;;;;;;;;;;5012807;28;20042;-62
2023/10/12 14:15:18;;;;;;;8.55;1.70;;;;;;;;;;5012514;28;20048;-62
2023/10/12 14:17:43;;;;;;;10.55;2.50;;;;;;;;;;5012356;28;20077;-61
2023/10/12 14:20:08;;;;;;;11.30;2.30;;;;;;;;;;5012557;28;20067;-62
2023/10/12 14:22:34;;;;;;;10.32;1.80;;;;;;;;;;5012584;28;20037;-62
2023/10/12 14:25:03;;;;;;;11.38;1.77;;;;;;;;;;5012404;28;20029;-63
2023/10/12 14:27:28;;;;;;;11.10;1.70;;;;;;;;;;5011839;28;20105;-64
2023/10/12 14:29:54;;;;;;;10.00;1.52;;;;;;;;;;5012316;28;20072;-64
2023/10/12 14:32:19;;;;;;;10.95;2.10;;;;;;;;;;5012672;28;20029;-63
2023/10/12 14:34:46;;;;;;;10.50;1.70;;;;;;;;;;5012612;28;20034;-63
2023/10/12 14:37:13;;;;;;;13.63;2.25;;;;;;;;;;5012506;28;20152;-63
2023/10/12 14:39:39;;;;;;;14.45;2.25;;;;;;;;;;5012184;28;20383;-63
2023/10/12 14:42:06;;;;;;;11.85;1.88;;;;;;;;;;5012244;28;20018;-64
2023/10/12 14:44:33;;;;;;;10.63;1.63;;;;;;;;;;5012516;28;20430;-64
2023/10/12 14:47:04;;;;;;;10.20;2.08;;;;;;;;;;5012430;28;20459;-69
2023/10/12 14:49:32;;;;;;;12.73;2.13;;;;;;;;;;5012337;28;20487;-69
2023/10/12 14:52:00;;;;;;;14.02;2.47;;;;;;;;;;5012534;28;20030;-71
2023/10/12 14:54:25;;;;;;;10.77;2.60;;;;;;;;;;5011989;28;20093;-68
2023/10/12 14:56:53;;;;;;;12.13;2.17;;;;;;;;;;5012260;28;20053;-69
2023/10/12 14:59:18;;;;;;;12.13;2.63;;;;;;;;;;5010913;28;20468;-69
2023/10/12 15:01:45;;;;;;;13.48;2.70;;;;;;;;;;5020760;28;20026;-69
2023/10/12 15:04:10;;;;;;;16.60;3.10;;;;;;;;;;5027522;28;20397;-70
2023/10/12 15:06:35;;;;;;;11.73;3.03;;;;;;;;;;5018900;28;21734;-70
2023/10/12 15:09:01;;;;;;;13.63;3.25;;;;;;;;;;5024813;28;20032;-69
2023/10/12 15:11:26;;;;;;;14.48;3.38;;;;;;;;;;5030329;28;20057;-69
2023/10/12 15:13:53;;;;;;;17.17;3.70;;;;;;;;;;5025382;28;20375;-69
2023/10/12 15:16:18;;;;;;;12.90;3.85;;;;;;;;;;5029780;28;20025;-70
2023/10/12 15:18:44;;;;;;;12.65;3.45;;;;;;;;;;5012544;28;20040;-69
2023/10/12 15:21:12;;;;;;;11.17;3.47;;;;;;;;;;5030657;28;20104;-70
2023/10/12 15:23:39;;;;;;;18.35;3.47;;;;;;;;;;5030067;28;20497;-70
2023/10/12 15:26:06;;;;;;;16.90;4.32;;;;;;;;;;5020232;28;20028;-70
2023/10/12 15:28:31;;;;;;;15.67;4.43;;;;;;;;;;5015772;28;20025;-70
2023/10/12 15:30:56;;;;;;;12.83;3.80;;;;;;;;;;5029373;28;20482;-70
2023/10/12 15:33:22;;;;;;;17.93;3.60;;;;;;;;;;5030524;28;20021;-70
2023/10/12 15:35:48;;;;;;;11.70;3.30;;;;;;;;;;5030091;28;20372;-69
2023/10/12 15:38:13;;;;;;;19.47;4.00;;;;;;;;;;5030447;28;20049;-69
2023/10/12 15:40:40;;;;;;;18.70;4.17;;;;;;;;;;5029406;28;20025;-70
2023/10/12 15:43:06;;;;;;;15.40;3.97;;;;;;;;;;5029860;28;20060;-70
2023/10/12 15:45:35;;;;;;;19.97;4.37;;;;;;;;;;5023869;28;20022;-70
2023/10/12 15:48:03;;;;;;;12.60;4.40;;;;;;;;;;5003102;28;20503;-70
2023/10/12 15:50:28;;;;;;;16.57;4.53;;;;;;;;;;5010970;28;20349;-69
2023/10/12 15:52:55;;;;;;;13.07;3.93;;;;;;;;;;5010982;28;20098;-70
2023/10/12 15:55:22;;;;;;;14.85;4.03;;;;;;;;;;5011201;28;20353;-69
2023/10/12 15:57:52;;;;;;;13.33;4.20;;;;;;;;;;5024566;28;20568;-62
2023/10/12 16:00:24;;;;;;;19.00;4.50;;;;;;;;;;5016866;28;20491;-62
2023/10/12 16:02:54;;;;;;;21.83;4.70;;;;;;;;;;5018869;28;20025;-63
2023/10/12 16:05:20;;;;;;;14.53;4.17;;;;;;;;;;5027625;28;20150;-62
2023/10/12 16:07:46;;;;;;;19.60;4.97;;;;;;;;;;5011498;28;20029;-63
2023/10/12 16:10:11;;;;;;;16.60;5.10;;;;;;;;;;5004285;28;20030;-62
2023/10/12 16:12:36;;;;;;;17.17;5.60;;;;;;;;;;5010298;28;20026;-62
2023/10/12 16:15:02;;;;;;;18.90;7.90;;;;;;;;;;5010255;28;20183;-62
2023/10/12 16:17:27;;;;;;;19.10;4.53;;;;;;;;;;5016184;28;20514;-62
2023/10/12 16:19:54;;;;;;;15.77;6.70;;;;;;;;;;5011834;28;20041;-62
2023/10/12 16:22:19;;;;;;;15.47;5.60;;;;;;;;;;5010557;28;20029;-64
2023/10/12 16:24:45;;;;;;;16.17;5.37;;;;;;;;;;5020957;28;20490;-63
2023/10/12 16:27:10;;;;;;;24.57;4.87;;;;;;;;;;5028713;28;20025;-62
2023/10/12 16:29:37;;;;;;;13.47;4.93;;;;;;;;;;5029690;28;20096;-63
2023/10/12 16:32:03;;;;;;;14.00;4.70;;;;;;;;;;5026027;28;20471;-63
2023/10/12 16:34:28;;;;;;;17.70;9.00;;;;;;;;;;5011178;28;20022;-62
2023/10/12 16:36:56;;;;;;;17.37;6.27;;;;;;;;;;5025344;28;20026;-63
2023/10/12 16:39:25;;;;;;;21.60;6.20;;;;;;;;;;5028253;28;20467;-63
2023/10/12 16:41:52;;;;;;;18.30;6.17;;;;;;;;;;5029342;28;20013;-64
2023/10/12 16:44:17;;;;;;;17.87;4.73;;;;;;;;;;5028378;28;20476;-63
2023/10/12 16:46:42;;;;;;;13.03;4.83;;;;;;;;;;5011631;28;20026;-62
2023/10/12 16:49:11;;;;;;;13.83;4.70;;;;;;;;;;5025128;28;20048;-62
2023/10/12 16:51:36;;;;;;;10.80;3.80;;;;;;;;;;5009665;28;20066;-63
2023/10/12 16:54:03;;;;;;;12.80;4.87;;;;;;;;;;5025465;28;20022;-63